sensor_id;sensor_type;location;lat;lon;timestamp;temperature;humidity
25688;DHT22;17407;51.120;3.702;2023-04-30T00:00:49;10.40;99.90
25688;DHT22;17407;51.120;3.702;2023-04-30T00:03:15;10.40;99.90
25688;DHT22;17407;51.120;3.702;2023-04-30T00:05:40;10.40;99.90
25688;DHT22;17407;51.120;3.702;2023-04-30T00:08:06;10.30;99.90
25688;DHT22;17407;51.120;3.702;2023-04-30T00:10:31;10.30;99.90
25688;DHT22;17407;51.120;3.702;2023-04-30T00:12:57;10.30;99.90
25688;DHT22;17407;51.120;3.702;2023-04-30T00:15:23;10.30;99.90
25688;DHT22;17407;51.120;3.702;2023-04-30T00:17:48;10.20;99.90
25688;DHT22;17407;51.120;3.702;2023-04-30T00:20:14;10.20;99.90
25688;DHT22;17407;51.120;3.702;2023-04-30T00:22:40;10.20;99.90
25688;DHT22;17407;51.120;3.702;2023-04-30T00:25:05;10.10;99.90
25688;DHT22;17407;51.120;3.702;2023-04-30T00:27:31;10.10;99.90
25688;DHT22;17407;51.120;3.702;2023-04-30T00:29:57;10.10;99.90
25688;DHT22;17407;51.120;3.702;2023-04-30T00:32:23;10.10;99.90
25688;DHT22;17407;51.120;3.702;2023-04-30T00:34:48;10.10;99.90
25688;DHT22;17407;51.120;3.702;2023-04-30T00:37:14;10.10;99.90
25688;DHT22;17407;51.120;3.702;2023-04-30T00:39:40;10.10;99.90
25688;DHT22;17407;51.120;3.702;2023-04-30T00:42:06;10.00;99.90
25688;DHT22;17407;51.120;3.702;2023-04-30T00:44:32;10.00;99.90
25688;DHT22;17407;51.120;3.702;2023-04-30T00:46:58;10.00;99.90
25688;DHT22;17407;51.120;3.702;2023-04-30T00:49:24;9.90;99.90
25688;DHT22;17407;51.120;3.702;2023-04-30T00:51:50;9.90;99.90
25688;DHT22;17407;51.120;3.702;2023-04-30T00:54:17;9.90;99.90
25688;DHT22;17407;51.120;3.702;2023-04-30T00:56:44;10.00;99.90
25688;DHT22;17407;51.120;3.702;2023-04-30T00:59:12;9.90;99.90
25688;DHT22;17407;51.120;3.702;2023-04-30T01:01:38;9.90;99.90
25688;DHT22;17407;51.120;3.702;2023-04-30T01:04:04;9.90;99.90
25688;DHT22;17407;51.120;3.702;2023-04-30T01:06:30;9.90;99.90
25688;DHT22;17407;51.120;3.702;2023-04-30T01:08:56;9.80;99.90
25688;DHT22;17407;51.120;3.702;2023-04-30T01:11:27;9.90;99.90
25688;DHT22;17407;51.120;3.702;2023-04-30T01:16:56;9.80;99.90
25688;DHT22;17407;51.120;3.702;2023-04-30T01:19:41;9.80;99.90
25688;DHT22;17407;51.120;3.702;2023-04-30T01:22:26;9.80;99.90
25688;DHT22;17407;51.120;3.702;2023-04-30T01:30:26;9.70;99.90
25688;DHT22;17407;51.120;3.702;2023-04-30T01:32:52;9.70;99.90
25688;DHT22;17407;51.120;3.702;2023-04-30T01:35:18;9.60;99.90
25688;DHT22;17407;51.120;3.702;2023-04-30T01:38:33;9.60;99.90
25688;DHT22;17407;51.120;3.702;2023-04-30T01:41:05;9.60;99.90
25688;DHT22;17407;51.120;3.702;2023-04-30T01:46:29;9.60;99.90
25688;DHT22;17407;51.120;3.702;2023-04-30T01:52:11;9.50;99.90
25688;DHT22;17407;51.120;3.702;2023-04-30T01:54:46;9.50;99.90
25688;DHT22;17407;51.120;3.702;2023-04-30T01:57:29;9.50;99.90
25688;DHT22;17407;51.120;3.702;2023-04-30T01:59:57;9.50;99.90
25688;DHT22;17407;51.120;3.702;2023-04-30T02:02:22;9.40;99.90
25688;DHT22;17407;51.120;3.702;2023-04-30T02:04:48;9.40;99.90
25688;DHT22;17407;51.120;3.702;2023-04-30T02:07:35;9.50;99.90
25688;DHT22;17407;51.120;3.702;2023-04-30T02:10:03;9.50;99.90
25688;DHT22;17407;51.120;3.702;2023-04-30T02:12:29;9.40;99.90
25688;DHT22;17407;51.120;3.702;2023-04-30T02:14:55;9.40;99.90
25688;DHT22;17407;51.120;3.702;2023-04-30T02:17:20;9.40;99.90
25688;DHT22;17407;51.120;3.702;2023-04-30T02:19:46;9.40;99.90
25688;DHT22;17407;51.120;3.702;2023-04-30T02:22:11;9.40;99.90
25688;DHT22;17407;51.120;3.702;2023-04-30T02:24:37;9.40;99.90
25688;DHT22;17407;51.120;3.702;2023-04-30T02:27:03;9.40;99.90
25688;DHT22;17407;51.120;3.702;2023-04-30T02:29:28;9.40;99.90
25688;DHT22;17407;51.120;3.702;2023-04-30T02:31:57;9.30;99.90
25688;DHT22;17407;51.120;3.702;2023-04-30T02:34:23;9.30;99.90
25688;DHT22;17407;51.120;3.702;2023-04-30T02:36:49;9.20;99.90
25688;DHT22;17407;51.120;3.702;2023-04-30T02:39:15;9.30;99.90
25688;DHT22;17407;51.120;3.702;2023-04-30T02:41:40;9.20;99.90
25688;DHT22;17407;51.120;3.702;2023-04-30T02:44:06;9.20;99.90
25688;DHT22;17407;51.120;3.702;2023-04-30T02:46:31;9.30;99.90
25688;DHT22;17407;51.120;3.702;2023-04-30T02:48:57;9.40;99.90
25688;DHT22;17407;51.120;3.702;2023-04-30T02:51:23;9.40;99.90
25688;DHT22;17407;51.120;3.702;2023-04-30T02:53:48;9.50;99.90
25688;DHT22;17407;51.120;3.702;2023-04-30T02:56:14;9.40;99.90
25688;DHT22;17407;51.120;3.702;2023-04-30T02:58:40;9.50;99.90
25688;DHT22;17407;51.120;3.702;2023-04-30T03:01:05;9.60;99.90
25688;DHT22;17407;51.120;3.702;2023-04-30T03:03:31;9.60;99.90
25688;DHT22;17407;51.120;3.702;2023-04-30T03:05:58;9.50;99.90
25688;DHT22;17407;51.120;3.702;2023-04-30T03:08:24;9.50;99.90
25688;DHT22;17407;51.120;3.702;2023-04-30T03:10:50;9.50;99.90
25688;DHT22;17407;51.120;3.702;2023-04-30T03:13:16;9.60;99.90
25688;DHT22;17407;51.120;3.702;2023-04-30T03:15:42;9.60;99.90
25688;DHT22;17407;51.120;3.702;2023-04-30T03:18:09;9.50;99.90
25688;DHT22;17407;51.120;3.702;2023-04-30T03:20:35;9.50;99.90
25688;DHT22;17407;51.120;3.702;2023-04-30T03:23:00;9.50;99.90
25688;DHT22;17407;51.120;3.702;2023-04-30T03:25:26;9.50;99.90
25688;DHT22;17407;51.120;3.702;2023-04-30T03:27:52;9.40;99.90
25688;DHT22;17407;51.120;3.702;2023-04-30T03:30:17;9.50;99.90
25688;DHT22;17407;51.120;3.702;2023-04-30T03:32:43;9.60;99.90
25688;DHT22;17407;51.120;3.702;2023-04-30T03:35:09;9.70;99.90
25688;DHT22;17407;51.120;3.702;2023-04-30T03:37:35;9.70;99.90
25688;DHT22;17407;51.120;3.702;2023-04-30T03:40:00;9.70;99.90
25688;DHT22;17407;51.120;3.702;2023-04-30T03:42:26;9.70;99.90
25688;DHT22;17407;51.120;3.702;2023-04-30T03:44:52;9.70;99.90
25688;DHT22;17407;51.120;3.702;2023-04-30T03:47:17;9.70;99.90
25688;DHT22;17407;51.120;3.702;2023-04-30T03:49:43;9.70;99.90
25688;DHT22;17407;51.120;3.702;2023-04-30T03:52:09;9.70;99.90
25688;DHT22;17407;51.120;3.702;2023-04-30T03:54:35;9.70;99.90
25688;DHT22;17407;51.120;3.702;2023-04-30T03:57:01;9.70;99.90
25688;DHT22;17407;51.120;3.702;2023-04-30T03:59:30;9.70;99.90
25688;DHT22;17407;51.120;3.702;2023-04-30T04:01:56;9.80;99.90
25688;DHT22;17407;51.120;3.702;2023-04-30T04:04:22;9.70;99.90
25688;DHT22;17407;51.120;3.702;2023-04-30T04:06:47;9.70;99.90
25688;DHT22;17407;51.120;3.702;2023-04-30T04:09:13;9.60;99.90
25688;DHT22;17407;51.120;3.702;2023-04-30T04:11:38;9.60;99.90
25688;DHT22;17407;51.120;3.702;2023-04-30T04:14:04;9.60;99.90
25688;DHT22;17407;51.120;3.702;2023-04-30T04:16:30;9.60;99.90
25688;DHT22;17407;51.120;3.702;2023-04-30T04:18:55;9.60;99.90
25688;DHT22;17407;51.120;3.702;2023-04-30T04:21:21;9.60;99.90
25688;DHT22;17407;51.120;3.702;2023-04-30T04:23:47;9.70;99.90
25688;DHT22;17407;51.120;3.702;2023-04-30T04:26:12;9.60;99.90
25688;DHT22;17407;51.120;3.702;2023-04-30T04:28:39;9.60;99.90
25688;DHT22;17407;51.120;3.702;2023-04-30T04:31:05;9.60;99.90
25688;DHT22;17407;51.120;3.702;2023-04-30T04:33:32;9.60;99.90
25688;DHT22;17407;51.120;3.702;2023-04-30T04:35:58;9.60;99.90
25688;DHT22;17407;51.120;3.702;2023-04-30T04:38:24;9.50;99.90
25688;DHT22;17407;51.120;3.702;2023-04-30T04:40:54;9.50;99.90
25688;DHT22;17407;51.120;3.702;2023-04-30T04:43:20;9.50;99.90
25688;DHT22;17407;51.120;3.702;2023-04-30T04:45:46;9.50;99.90
25688;DHT22;17407;51.120;3.702;2023-04-30T04:48:15;9.50;99.90
25688;DHT22;17407;51.120;3.702;2023-04-30T04:50:40;9.40;99.90
25688;DHT22;17407;51.120;3.702;2023-04-30T04:53:06;9.40;99.90
25688;DHT22;17407;51.120;3.702;2023-04-30T04:55:32;9.50;99.90
25688;DHT22;17407;51.120;3.702;2023-04-30T04:57:57;9.40;99.90
25688;DHT22;17407;51.120;3.702;2023-04-30T05:00:23;9.50;99.90
25688;DHT22;17407;51.120;3.702;2023-04-30T05:02:50;9.40;99.90
25688;DHT22;17407;51.120;3.702;2023-04-30T05:05:16;9.40;99.90
25688;DHT22;17407;51.120;3.702;2023-04-30T05:07:41;9.40;99.90
25688;DHT22;17407;51.120;3.702;2023-04-30T05:10:07;9.40;99.90
25688;DHT22;17407;51.120;3.702;2023-04-30T05:12:33;9.50;99.90
25688;DHT22;17407;51.120;3.702;2023-04-30T05:14:59;9.70;99.90
25688;DHT22;17407;51.120;3.702;2023-04-30T05:17:24;9.70;99.90
25688;DHT22;17407;51.120;3.702;2023-04-30T05:19:51;9.80;99.90
25688;DHT22;17407;51.120;3.702;2023-04-30T05:22:17;9.70;99.90
25688;DHT22;17407;51.120;3.702;2023-04-30T05:24:43;9.70;99.90
25688;DHT22;17407;51.120;3.702;2023-04-30T05:27:08;9.80;99.90
25688;DHT22;17407;51.120;3.702;2023-04-30T05:29:34;9.80;99.90
25688;DHT22;17407;51.120;3.702;2023-04-30T05:32:00;9.80;99.90
25688;DHT22;17407;51.120;3.702;2023-04-30T05:34:26;9.90;99.90
25688;DHT22;17407;51.120;3.702;2023-04-30T05:36:52;10.10;99.90
25688;DHT22;17407;51.120;3.702;2023-04-30T05:39:18;10.00;99.90
25688;DHT22;17407;51.120;3.702;2023-04-30T05:41:43;10.30;99.90
25688;DHT22;17407;51.120;3.702;2023-04-30T05:44:09;10.20;99.90
25688;DHT22;17407;51.120;3.702;2023-04-30T05:46:35;10.40;99.90
25688;DHT22;17407;51.120;3.702;2023-04-30T05:49:01;10.30;99.90
25688;DHT22;17407;51.120;3.702;2023-04-30T05:51:27;10.30;99.90
25688;DHT22;17407;51.120;3.702;2023-04-30T05:53:53;10.30;99.90
25688;DHT22;17407;51.120;3.702;2023-04-30T05:56:19;10.40;99.90
25688;DHT22;17407;51.120;3.702;2023-04-30T05:58:45;10.60;99.90
25688;DHT22;17407;51.120;3.702;2023-04-30T06:01:11;10.60;99.90
25688;DHT22;17407;51.120;3.702;2023-04-30T06:03:37;10.70;99.90
25688;DHT22;17407;51.120;3.702;2023-04-30T06:06:03;10.70;99.90
25688;DHT22;17407;51.120;3.702;2023-04-30T06:08:29;10.70;99.90
25688;DHT22;17407;51.120;3.702;2023-04-30T06:10:55;10.80;99.90
25688;DHT22;17407;51.120;3.702;2023-04-30T06:13:21;10.90;99.90
25688;DHT22;17407;51.120;3.702;2023-04-30T06:15:47;10.90;99.90
25688;DHT22;17407;51.120;3.702;2023-04-30T06:18:15;10.80;99.90
25688;DHT22;17407;51.120;3.702;2023-04-30T06:20:41;10.90;99.90
25688;DHT22;17407;51.120;3.702;2023-04-30T06:23:08;11.10;99.90
25688;DHT22;17407;51.120;3.702;2023-04-30T06:25:34;11.10;99.90
25688;DHT22;17407;51.120;3.702;2023-04-30T06:28:03;11.20;99.90
25688;DHT22;17407;51.120;3.702;2023-04-30T06:30:30;11.20;99.90
25688;DHT22;17407;51.120;3.702;2023-04-30T06:32:55;11.40;99.90
25688;DHT22;17407;51.120;3.702;2023-04-30T06:35:21;11.40;99.90
25688;DHT22;17407;51.120;3.702;2023-04-30T06:37:50;11.50;99.90
25688;DHT22;17407;51.120;3.702;2023-04-30T06:40:16;11.50;99.90
25688;DHT22;17407;51.120;3.702;2023-04-30T06:42:42;11.50;99.90
25688;DHT22;17407;51.120;3.702;2023-04-30T06:45:08;11.40;99.90
25688;DHT22;17407;51.120;3.702;2023-04-30T06:47:34;11.60;99.90
25688;DHT22;17407;51.120;3.702;2023-04-30T06:50:03;11.60;99.90
25688;DHT22;17407;51.120;3.702;2023-04-30T06:52:29;11.70;99.90
25688;DHT22;17407;51.120;3.702;2023-04-30T06:54:55;11.80;99.90
25688;DHT22;17407;51.120;3.702;2023-04-30T06:57:21;11.80;99.90
25688;DHT22;17407;51.120;3.702;2023-04-30T06:59:46;11.90;99.90
25688;DHT22;17407;51.120;3.702;2023-04-30T07:02:12;11.90;99.90
25688;DHT22;17407;51.120;3.702;2023-04-30T07:04:38;12.00;99.90
25688;DHT22;17407;51.120;3.702;2023-04-30T07:07:03;12.20;99.90
25688;DHT22;17407;51.120;3.702;2023-04-30T07:09:29;12.30;99.90
25688;DHT22;17407;51.120;3.702;2023-04-30T07:11:56;12.50;99.90
25688;DHT22;17407;51.120;3.702;2023-04-30T07:14:23;12.60;99.90
25688;DHT22;17407;51.120;3.702;2023-04-30T07:16:51;12.80;99.90
25688;DHT22;17407;51.120;3.702;2023-04-30T07:19:17;13.00;99.90
25688;DHT22;17407;51.120;3.702;2023-04-30T07:21:43;13.00;99.90
25688;DHT22;17407;51.120;3.702;2023-04-30T07:24:09;12.90;99.90
25688;DHT22;17407;51.120;3.702;2023-04-30T07:26:35;12.90;99.90
25688;DHT22;17407;51.120;3.702;2023-04-30T07:29:01;13.00;99.90
25688;DHT22;17407;51.120;3.702;2023-04-30T07:31:28;13.10;99.90
25688;DHT22;17407;51.120;3.702;2023-04-30T07:33:54;13.20;99.90
25688;DHT22;17407;51.120;3.702;2023-04-30T07:36:20;13.30;99.90
25688;DHT22;17407;51.120;3.702;2023-04-30T07:38:46;13.50;99.90
25688;DHT22;17407;51.120;3.702;2023-04-30T07:41:12;13.50;99.90
25688;DHT22;17407;51.120;3.702;2023-04-30T07:43:38;13.60;99.90
25688;DHT22;17407;51.120;3.702;2023-04-30T07:46:04;13.80;99.90
25688;DHT22;17407;51.120;3.702;2023-04-30T07:48:30;13.80;99.90
25688;DHT22;17407;51.120;3.702;2023-04-30T07:50:56;14.00;99.90
25688;DHT22;17407;51.120;3.702;2023-04-30T07:53:25;14.10;99.90
25688;DHT22;17407;51.120;3.702;2023-04-30T07:55:50;14.30;99.90
25688;DHT22;17407;51.120;3.702;2023-04-30T07:58:16;14.50;99.90
25688;DHT22;17407;51.120;3.702;2023-04-30T08:00:42;14.70;99.90
25688;DHT22;17407;51.120;3.702;2023-04-30T08:03:07;14.90;99.90
25688;DHT22;17407;51.120;3.702;2023-04-30T08:05:33;14.90;99.90
25688;DHT22;17407;51.120;3.702;2023-04-30T08:07:59;15.10;99.90
25688;DHT22;17407;51.120;3.702;2023-04-30T08:10:25;15.20;99.90
25688;DHT22;17407;51.120;3.702;2023-04-30T08:12:51;15.30;99.90
25688;DHT22;17407;51.120;3.702;2023-04-30T08:15:17;15.40;99.90
25688;DHT22;17407;51.120;3.702;2023-04-30T08:17:49;15.50;99.90
25688;DHT22;17407;51.120;3.702;2023-04-30T08:20:15;15.50;99.90
25688;DHT22;17407;51.120;3.702;2023-04-30T08:22:41;15.60;99.90
25688;DHT22;17407;51.120;3.702;2023-04-30T08:25:10;15.90;99.90
25688;DHT22;17407;51.120;3.702;2023-04-30T08:27:37;16.10;99.90
25688;DHT22;17407;51.120;3.702;2023-04-30T08:30:03;16.30;99.90
25688;DHT22;17407;51.120;3.702;2023-04-30T08:32:29;16.40;99.90
25688;DHT22;17407;51.120;3.702;2023-04-30T08:34:55;16.50;99.90
25688;DHT22;17407;51.120;3.702;2023-04-30T08:37:20;16.70;99.90
25688;DHT22;17407;51.120;3.702;2023-04-30T08:39:46;16.70;99.90
25688;DHT22;17407;51.120;3.702;2023-04-30T08:42:13;16.70;99.90
25688;DHT22;17407;51.120;3.702;2023-04-30T08:44:39;17.00;99.90
25688;DHT22;17407;51.120;3.702;2023-04-30T08:47:10;17.10;99.90
25688;DHT22;17407;51.120;3.702;2023-04-30T08:49:37;17.40;99.90
25688;DHT22;17407;51.120;3.702;2023-04-30T08:52:03;17.50;99.90
25688;DHT22;17407;51.120;3.702;2023-04-30T08:54:33;17.60;99.90
25688;DHT22;17407;51.120;3.702;2023-04-30T08:57:00;17.90;99.90
25688;DHT22;17407;51.120;3.702;2023-04-30T08:59:26;18.00;99.90
25688;DHT22;17407;51.120;3.702;2023-04-30T09:01:51;18.00;99.90
25688;DHT22;17407;51.120;3.702;2023-04-30T09:04:17;18.10;99.90
25688;DHT22;17407;51.120;3.702;2023-04-30T09:06:43;18.20;99.90
25688;DHT22;17407;51.120;3.702;2023-04-30T09:09:11;18.30;99.90
25688;DHT22;17407;51.120;3.702;2023-04-30T09:11:37;18.40;99.90
25688;DHT22;17407;51.120;3.702;2023-04-30T09:14:03;18.70;99.90
25688;DHT22;17407;51.120;3.702;2023-04-30T09:16:43;18.80;99.90
25688;DHT22;17407;51.120;3.702;2023-04-30T09:19:21;18.80;99.90
25688;DHT22;17407;51.120;3.702;2023-04-30T09:21:47;18.90;99.90
25688;DHT22;17407;51.120;3.702;2023-04-30T09:24:12;19.10;99.90
25688;DHT22;17407;51.120;3.702;2023-04-30T09:26:38;19.20;99.90
25688;DHT22;17407;51.120;3.702;2023-04-30T09:29:04;19.50;99.90
25688;DHT22;17407;51.120;3.702;2023-04-30T09:31:35;19.50;99.90
25688;DHT22;17407;51.120;3.702;2023-04-30T09:34:01;19.70;99.90
25688;DHT22;17407;51.120;3.702;2023-04-30T09:36:27;19.90;99.90
25688;DHT22;17407;51.120;3.702;2023-04-30T09:38:52;20.00;99.90
25688;DHT22;17407;51.120;3.702;2023-04-30T09:41:25;20.00;99.90
25688;DHT22;17407;51.120;3.702;2023-04-30T09:43:52;20.20;99.90
25688;DHT22;17407;51.120;3.702;2023-04-30T09:46:18;20.20;99.90
25688;DHT22;17407;51.120;3.702;2023-04-30T09:48:45;20.30;99.90
25688;DHT22;17407;51.120;3.702;2023-04-30T09:51:10;20.30;99.90
25688;DHT22;17407;51.120;3.702;2023-04-30T09:53:41;20.40;99.90
25688;DHT22;17407;51.120;3.702;2023-04-30T09:56:07;20.60;99.90
25688;DHT22;17407;51.120;3.702;2023-04-30T09:58:36;20.60;99.90
25688;DHT22;17407;51.120;3.702;2023-04-30T10:01:07;20.80;99.90
25688;DHT22;17407;51.120;3.702;2023-04-30T10:03:38;20.90;99.90
25688;DHT22;17407;51.120;3.702;2023-04-30T10:06:05;20.90;99.90
25688;DHT22;17407;51.120;3.702;2023-04-30T10:08:42;20.90;99.90
25688;DHT22;17407;51.120;3.702;2023-04-30T10:11:11;20.90;99.90
25688;DHT22;17407;51.120;3.702;2023-04-30T10:14:09;20.90;99.90
25688;DHT22;17407;51.120;3.702;2023-04-30T10:16:53;21.20;99.90
25688;DHT22;17407;51.120;3.702;2023-04-30T10:19:24;21.20;99.90
25688;DHT22;17407;51.120;3.702;2023-04-30T10:21:51;21.30;99.90
25688;DHT22;17407;51.120;3.702;2023-04-30T10:24:19;21.30;99.90
25688;DHT22;17407;51.120;3.702;2023-04-30T10:26:46;21.40;99.90
25688;DHT22;17407;51.120;3.702;2023-04-30T10:29:13;21.50;99.90
25688;DHT22;17407;51.120;3.702;2023-04-30T10:31:42;21.50;99.90
25688;DHT22;17407;51.120;3.702;2023-04-30T10:36:54;21.70;99.10
25688;DHT22;17407;51.120;3.702;2023-04-30T10:39:21;21.90;99.90
25688;DHT22;17407;51.120;3.702;2023-04-30T10:41:48;21.90;98.50
25688;DHT22;17407;51.120;3.702;2023-04-30T10:44:21;22.00;97.60
25688;DHT22;17407;51.120;3.702;2023-04-30T10:46:47;22.10;96.10
25688;DHT22;17407;51.120;3.702;2023-04-30T10:49:13;22.30;95.30
25688;DHT22;17407;51.120;3.702;2023-04-30T10:51:51;22.30;95.50
25688;DHT22;17407;51.120;3.702;2023-04-30T10:54:27;22.50;94.70
25688;DHT22;17407;51.120;3.702;2023-04-30T10:57:07;22.50;94.40
25688;DHT22;17407;51.120;3.702;2023-04-30T10:59:34;22.60;93.90
25688;DHT22;17407;51.120;3.702;2023-04-30T11:02:01;22.60;93.90
25688;DHT22;17407;51.120;3.702;2023-04-30T11:04:27;22.60;91.10
25688;DHT22;17407;51.120;3.702;2023-04-30T11:07:09;22.60;90.90
25688;DHT22;17407;51.120;3.702;2023-04-30T11:09:41;22.60;91.10
25688;DHT22;17407;51.120;3.702;2023-04-30T11:12:12;22.60;90.20
25688;DHT22;17407;51.120;3.702;2023-04-30T11:14:43;22.70;90.40
25688;DHT22;17407;51.120;3.702;2023-04-30T11:17:21;22.90;90.40
25688;DHT22;17407;51.120;3.702;2023-04-30T11:19:52;23.00;90.30
25688;DHT22;17407;51.120;3.702;2023-04-30T11:22:21;23.10;90.30
25688;DHT22;17407;51.120;3.702;2023-04-30T11:25:08;23.20;89.10
25688;DHT22;17407;51.120;3.702;2023-04-30T11:27:35;23.30;88.80
25688;DHT22;17407;51.120;3.702;2023-04-30T11:30:03;23.30;86.40
25688;DHT22;17407;51.120;3.702;2023-04-30T11:32:34;23.30;86.40
25688;DHT22;17407;51.120;3.702;2023-04-30T11:35:04;23.50;84.50
25688;DHT22;17407;51.120;3.702;2023-04-30T11:40:10;23.60;83.70
25688;DHT22;17407;51.120;3.702;2023-04-30T11:42:41;23.70;80.30
25688;DHT22;17407;51.120;3.702;2023-04-30T11:45:15;23.60;79.90
25688;DHT22;17407;51.120;3.702;2023-04-30T11:47:44;23.60;78.10
25688;DHT22;17407;51.120;3.702;2023-04-30T11:50:12;23.60;81.10
25688;DHT22;17407;51.120;3.702;2023-04-30T11:52:38;23.80;80.80
25688;DHT22;17407;51.120;3.702;2023-04-30T11:55:06;23.90;80.70
25688;DHT22;17407;51.120;3.702;2023-04-30T11:57:39;24.10;82.30
25688;DHT22;17407;51.120;3.702;2023-04-30T12:00:18;24.20;81.90
25688;DHT22;17407;51.120;3.702;2023-04-30T12:02:46;24.00;82.10
25688;DHT22;17407;51.120;3.702;2023-04-30T12:05:20;24.10;82.10
25688;DHT22;17407;51.120;3.702;2023-04-30T12:07:50;24.20;80.10
25688;DHT22;17407;51.120;3.702;2023-04-30T12:10:19;24.20;78.10
25688;DHT22;17407;51.120;3.702;2023-04-30T12:12:49;24.30;74.00
25688;DHT22;17407;51.120;3.702;2023-04-30T12:15:21;24.30;75.60
25688;DHT22;17407;51.120;3.702;2023-04-30T12:17:51;24.40;74.00
25688;DHT22;17407;51.120;3.702;2023-04-30T12:20:16;24.40;72.80
25688;DHT22;17407;51.120;3.702;2023-04-30T12:22:43;24.20;74.70
25688;DHT22;17407;51.120;3.702;2023-04-30T12:25:19;24.10;77.20
25688;DHT22;17407;51.120;3.702;2023-04-30T12:27:47;24.10;75.20
25688;DHT22;17407;51.120;3.702;2023-04-30T12:30:13;24.10;73.00
25688;DHT22;17407;51.120;3.702;2023-04-30T12:32:44;23.90;74.80
25688;DHT22;17407;51.120;3.702;2023-04-30T12:35:15;23.40;77.30
25688;DHT22;17407;51.120;3.702;2023-04-30T12:37:45;23.40;77.00
25688;DHT22;17407;51.120;3.702;2023-04-30T12:40:13;23.40;80.50
25688;DHT22;17407;51.120;3.702;2023-04-30T12:42:42;23.40;78.20
25688;DHT22;17407;51.120;3.702;2023-04-30T12:45:09;23.80;75.30
25688;DHT22;17407;51.120;3.702;2023-04-30T12:47:41;23.90;73.50
25688;DHT22;17407;51.120;3.702;2023-04-30T12:50:11;24.00;74.00
25688;DHT22;17407;51.120;3.702;2023-04-30T12:52:38;23.90;73.90
25688;DHT22;17407;51.120;3.702;2023-04-30T12:55:15;24.00;69.60
25688;DHT22;17407;51.120;3.702;2023-04-30T12:58:08;24.00;71.80
25688;DHT22;17407;51.120;3.702;2023-04-30T13:00:44;24.00;71.20
25688;DHT22;17407;51.120;3.702;2023-04-30T13:03:11;24.10;72.10
25688;DHT22;17407;51.120;3.702;2023-04-30T13:05:37;24.20;72.10
25688;DHT22;17407;51.120;3.702;2023-04-30T13:08:03;24.20;76.20
25688;DHT22;17407;51.120;3.702;2023-04-30T13:10:31;24.00;79.40
25688;DHT22;17407;51.120;3.702;2023-04-30T13:12:57;24.20;73.60
25688;DHT22;17407;51.120;3.702;2023-04-30T13:15:23;24.40;71.80
25688;DHT22;17407;51.120;3.702;2023-04-30T13:17:48;24.20;74.00
25688;DHT22;17407;51.120;3.702;2023-04-30T13:20:17;24.00;71.40
25688;DHT22;17407;51.120;3.702;2023-04-30T13:22:43;24.10;70.40
25688;DHT22;17407;51.120;3.702;2023-04-30T13:25:09;24.10;73.60
25688;DHT22;17407;51.120;3.702;2023-04-30T13:27:34;24.10;71.80
25688;DHT22;17407;51.120;3.702;2023-04-30T13:30:01;24.20;74.60
25688;DHT22;17407;51.120;3.702;2023-04-30T13:32:28;24.40;72.10
25688;DHT22;17407;51.120;3.702;2023-04-30T13:34:54;24.40;76.60
25688;DHT22;17407;51.120;3.702;2023-04-30T13:37:20;24.50;76.80
25688;DHT22;17407;51.120;3.702;2023-04-30T13:39:46;24.60;75.70
25688;DHT22;17407;51.120;3.702;2023-04-30T13:42:15;24.70;71.90
25688;DHT22;17407;51.120;3.702;2023-04-30T13:44:44;24.80;70.80
25688;DHT22;17407;51.120;3.702;2023-04-30T13:47:15;24.70;68.70
25688;DHT22;17407;51.120;3.702;2023-04-30T13:49:41;24.80;74.60
25688;DHT22;17407;51.120;3.702;2023-04-30T13:52:06;24.50;76.00
25688;DHT22;17407;51.120;3.702;2023-04-30T13:54:32;24.60;72.60
25688;DHT22;17407;51.120;3.702;2023-04-30T13:56:58;24.50;70.60
25688;DHT22;17407;51.120;3.702;2023-04-30T13:59:27;24.50;68.60
25688;DHT22;17407;51.120;3.702;2023-04-30T14:01:54;24.50;72.10
25688;DHT22;17407;51.120;3.702;2023-04-30T14:04:19;24.50;76.90
25688;DHT22;17407;51.120;3.702;2023-04-30T14:06:45;24.30;76.40
25688;DHT22;17407;51.120;3.702;2023-04-30T14:09:13;24.30;76.30
25688;DHT22;17407;51.120;3.702;2023-04-30T14:11:38;24.10;79.80
25688;DHT22;17407;51.120;3.702;2023-04-30T14:14:04;24.00;78.10
25688;DHT22;17407;51.120;3.702;2023-04-30T14:16:30;24.00;75.50
25688;DHT22;17407;51.120;3.702;2023-04-30T14:18:56;24.30;75.50
25688;DHT22;17407;51.120;3.702;2023-04-30T14:21:22;24.30;72.30
25688;DHT22;17407;51.120;3.702;2023-04-30T14:23:47;24.40;73.10
25688;DHT22;17407;51.120;3.702;2023-04-30T14:26:13;24.20;74.00
25688;DHT22;17407;51.120;3.702;2023-04-30T14:28:39;24.20;74.80
25688;DHT22;17407;51.120;3.702;2023-04-30T14:31:05;24.00;75.50
25688;DHT22;17407;51.120;3.702;2023-04-30T14:33:31;24.00;77.50
25688;DHT22;17407;51.120;3.702;2023-04-30T14:35:57;23.90;76.20
25688;DHT22;17407;51.120;3.702;2023-04-30T14:38:26;23.70;78.00
25688;DHT22;17407;51.120;3.702;2023-04-30T14:40:52;23.80;77.50
25688;DHT22;17407;51.120;3.702;2023-04-30T14:43:18;23.90;76.90
25688;DHT22;17407;51.120;3.702;2023-04-30T14:45:45;23.90;76.00
25688;DHT22;17407;51.120;3.702;2023-04-30T14:48:11;23.90;74.30
25688;DHT22;17407;51.120;3.702;2023-04-30T14:50:37;24.10;74.70
25688;DHT22;17407;51.120;3.702;2023-04-30T14:53:06;24.00;75.00
25688;DHT22;17407;51.120;3.702;2023-04-30T14:55:32;24.20;72.40
25688;DHT22;17407;51.120;3.702;2023-04-30T14:57:58;24.20;75.00
25688;DHT22;17407;51.120;3.702;2023-04-30T15:00:24;24.20;74.60
25688;DHT22;17407;51.120;3.702;2023-04-30T15:02:49;24.00;74.30
25688;DHT22;17407;51.120;3.702;2023-04-30T15:05:15;23.70;71.90
25688;DHT22;17407;51.120;3.702;2023-04-30T15:07:41;23.70;75.50
25688;DHT22;17407;51.120;3.702;2023-04-30T15:10:07;23.70;79.10
25688;DHT22;17407;51.120;3.702;2023-04-30T15:12:33;23.70;79.40
25688;DHT22;17407;51.120;3.702;2023-04-30T15:15:00;23.80;79.00
25688;DHT22;17407;51.120;3.702;2023-04-30T15:17:27;23.70;79.30
25688;DHT22;17407;51.120;3.702;2023-04-30T15:19:53;23.60;81.40
25688;DHT22;17407;51.120;3.702;2023-04-30T15:22:19;23.50;80.40
25688;DHT22;17407;51.120;3.702;2023-04-30T15:24:45;23.50;80.10
25688;DHT22;17407;51.120;3.702;2023-04-30T15:27:11;23.50;80.00
25688;DHT22;17407;51.120;3.702;2023-04-30T15:29:37;23.50;78.60
25688;DHT22;17407;51.120;3.702;2023-04-30T15:32:04;23.70;71.90
25688;DHT22;17407;51.120;3.702;2023-04-30T15:34:30;23.70;71.70
25688;DHT22;17407;51.120;3.702;2023-04-30T15:36:56;23.60;71.70
25688;DHT22;17407;51.120;3.702;2023-04-30T15:39:23;23.50;72.80
25688;DHT22;17407;51.120;3.702;2023-04-30T15:41:49;23.50;71.80
25688;DHT22;17407;51.120;3.702;2023-04-30T15:44:15;23.30;80.20
25688;DHT22;17407;51.120;3.702;2023-04-30T15:46:40;23.20;84.30
25688;DHT22;17407;51.120;3.702;2023-04-30T15:49:06;23.00;85.40
25688;DHT22;17407;51.120;3.702;2023-04-30T15:51:32;23.10;84.30
25688;DHT22;17407;51.120;3.702;2023-04-30T15:53:58;22.90;84.70
25688;DHT22;17407;51.120;3.702;2023-04-30T15:56:24;22.90;86.40